Time;durP1;ratioP1;P1;durP2;ratioP2;P2;SDS_P1;SDS_P2;PMS_P1;PMS_P2;Temp;Humidity;BMP_temperature;BMP_pressure;BME280_temperature;BME280_humidity;BME280_pressure;Samples;Min_cycle;Max_cycle;Signal;HPM_P1;HPM_P2
2022/05/26 00:00:37;;;;;;;7.95;6.03;;;;;;;12.60;93.00;101355.47;2080871;28;20111;-76
2022/05/26 00:01:39;;;;;;;10.88;6.57;;;;;;;12.60;92.58;101356.34;2088024;28;21084;-76
2022/05/26 00:02:44;;;;;;;11.82;6.45;;;;;;;12.62;92.05;101352.78;2087391;28;44270;-76
2022/05/26 00:03:47;;;;;;;6.82;5.85;;;;;;;12.61;92.46;101351.84;2079207;28;46293;-75
2022/05/26 00:04:49;;;;;;;9.02;5.97;;;;;;;12.62;92.47;101353.63;2087926;28;27075;-76
2022/05/26 00:05:51;;;;;;;6.93;6.10;;;;;;;12.62;92.54;101350.94;2086841;28;44483;-75
2022/05/26 00:06:53;;;;;;;8.95;6.30;;;;;;;12.62;92.13;101356.31;2078930;28;45558;-76
2022/05/26 00:07:55;;;;;;;9.98;6.15;;;;;;;12.64;91.92;101354.47;2080183;28;36440;-75
2022/05/26 00:09:00;;;;;;;8.35;6.03;;;;;;;12.63;92.35;101355.38;2079091;28;46012;-75
2022/05/26 00:10:04;;;;;;;10.07;6.20;;;;;;;12.66;92.84;101359.81;2079626;28;44179;-76
2022/05/26 00:11:09;;;;;;;11.20;6.20;;;;;;;12.66;92.32;101357.13;2078553;28;46257;-76
2022/05/26 00:12:13;;;;;;;11.98;6.70;;;;;;;12.67;92.66;101361.56;2071564;28;46033;-75
2022/05/26 00:13:15;;;;;;;8.77;6.28;;;;;;;12.68;92.60;101357.97;2079918;28;43178;-75
2022/05/26 00:14:17;;;;;;;9.48;6.13;;;;;;;12.68;92.31;101357.97;2079652;28;44230;-76
2022/05/26 00:15:19;;;;;;;8.57;6.18;;;;;;;12.68;92.38;101356.16;2080007;28;43280;-76
2022/05/26 00:16:21;;;;;;;11.43;6.43;;;;;;;12.68;92.45;101358.84;2079859;28;44177;-75
2022/05/26 00:17:25;;;;;;;9.98;5.95;;;;;;;12.69;92.51;101354.38;2079843;28;45393;-76
2022/05/26 00:18:27;;;;;;;9.10;6.47;;;;;;;12.67;92.06;101359.78;2078857;28;45260;-76
2022/05/26 00:19:28;;;;;;;10.35;6.57;;;;;;;12.68;92.37;101363.34;2079018;28;45733;-76
2022/05/26 00:20:30;;;;;;;9.05;6.55;;;;;;;12.68;92.39;101345.41;2079822;28;44206;-76
2022/05/26 00:21:32;;;;;;;11.05;6.68;;;;;;;12.68;92.69;101352.59;2079710;28;39512;-76
2022/05/26 00:22:33;;;;;;;14.85;7.47;;;;;;;12.70;92.42;101351.63;2086880;28;46364;-76
2022/05/26 00:23:37;;;;;;;11.15;6.65;;;;;;;12.71;92.25;101352.53;2087412;28;44545;-75
2022/05/26 00:24:41;;;;;;;8.75;6.53;;;;;;;12.71;91.84;101353.41;2079080;28;43936;-76
2022/05/26 00:25:43;;;;;;;12.05;6.80;;;;;;;12.70;92.02;101348.94;2079598;28;45759;-75
2022/05/26 00:26:46;;;;;;;9.98;6.50;;;;;;;12.71;92.85;101352.53;2087457;28;43770;-75
2022/05/26 00:27:49;;;;;;;9.13;7.18;;;;;;;12.71;92.54;101353.41;2078550;28;46965;-76
2022/05/26 00:28:51;;;;;;;8.52;7.10;;;;;;;12.71;92.69;101352.53;2072323;28;20045;-75
2022/05/26 00:29:56;;;;;;;12.13;7.28;;;;;;;12.71;92.25;101357.91;2080298;28;20108;-76
2022/05/26 00:30:59;;;;;;;10.65;6.72;;;;;;;12.71;92.64;101353.41;2079403;28;43333;-76
2022/05/26 00:32:01;;;;;;;10.15;7.00;;;;;;;12.71;92.58;101356.09;2087461;28;45564;-76
2022/05/26 00:33:05;;;;;;;12.88;7.25;;;;;;;12.71;92.66;101361.47;2086635;28;46620;-76
2022/05/26 00:34:06;;;;;;;11.60;6.90;;;;;;;12.71;92.44;101355.22;2079936;28;42381;-75
2022/05/26 00:35:09;;;;;;;8.13;7.07;;;;;;;12.72;92.00;101343.53;2079941;28;30476;-75
2022/05/26 00:36:15;;;;;;;11.10;7.38;;;;;;;12.72;92.59;101356.97;2079094;28;44221;-76
2022/05/26 00:37:16;;;;;;;12.02;8.15;;;;;;;12.73;91.84;101350.69;2071569;28;45388;-76
2022/05/26 00:38:19;;;;;;;9.35;7.10;;;;;;;12.72;91.80;101359.66;2078993;28;45206;-75
2022/05/26 00:39:23;;;;;;;11.15;7.43;;;;;;;12.72;92.29;101360.56;2079612;28;43550;-75
2022/05/26 00:40:27;;;;;;;10.60;7.15;;;;;;;12.72;92.36;101363.25;2079936;28;45442;-75
2022/05/26 00:41:29;;;;;;;12.32;7.70;;;;;;;12.73;91.95;101365.00;2086501;28;46369;-75
2022/05/26 00:42:30;;;;;;;11.35;7.20;;;;;;;12.73;92.32;101361.44;2087047;28;44171;-75
2022/05/26 00:43:33;;;;;;;8.80;7.50;;;;;;;12.74;92.10;101363.19;2079563;28;38122;-76
2022/05/26 00:44:35;;;;;;;11.48;7.28;;;;;;;12.75;92.98;101359.59;2079740;28;44371;-75
2022/05/26 00:45:48;;;;;;;9.48;7.43;;;;;;;12.75;91.98;101365.81;2079421;28;42857;-75
2022/05/26 00:47:23;;;;;;;12.65;7.40;;;;;;;12.76;92.46;101353.31;2087226;28;45187;-75
2022/05/26 00:48:31;;;;;;;11.50;7.03;;;;;;;12.76;91.82;101350.63;2072576;28;43271;-76
2022/05/26 00:49:45;;;;;;;11.77;6.85;;;;;;;12.75;92.19;101352.41;2073847;28;44300;-75
2022/05/26 00:50:53;;;;;;;11.13;6.97;;;;;;;12.75;91.88;101359.59;2087423;28;45813;-75
2022/05/26 00:51:55;;;;;;;10.38;7.22;;;;;;;12.76;91.82;101350.63;2084191;28;45285;-76
2022/05/26 00:53:15;;;;;;;12.75;7.38;;;;;;;12.76;92.02;101350.63;2087195;28;44967;-75
2022/05/26 00:54:23;;;;;;;13.18;8.00;;;;;;;12.74;92.33;101350.66;2084441;28;44534;-75
2022/05/26 00:55:43;;;;;;;13.05;8.02;;;;;;;12.75;92.54;101344.34;2073697;28;45382;-75
2022/05/26 00:57:06;;;;;;;11.88;7.63;;;;;;;12.76;92.42;101350.63;2073763;28;40919;-76
2022/05/26 00:58:17;;;;;;;9.18;7.38;;;;;;;12.76;92.18;101356.00;2074422;28;43085;-76
2022/05/26 00:59:47;;;;;;;11.70;8.18;;;;;;;12.75;92.53;101354.22;2079176;28;45400;-75
2022/05/26 01:00:50;;;;;;;10.23;7.50;;;;;;;12.74;92.38;101353.34;2080543;28;20953;-75
2022/05/26 01:01:53;;;;;;;11.38;8.05;;;;;;;12.75;93.19;101354.22;2087357;28;44084;-74
2022/05/26 01:03:22;;;;;;;11.38;8.70;;;;;;;12.74;92.99;101349.75;2085380;28;45468;-75
2022/05/26 01:05:53;;;;;;;14.18;9.02;;;;;;;12.72;92.90;101348.91;2068701;28;20058;-73
2022/05/26 01:07:19;;;;;;;12.00;9.07;;;;;;;12.72;93.31;101351.59;2062005;28;45635;-73
2022/05/26 01:08:37;;;;;;;12.55;8.95;;;;;;;12.71;93.14;101352.53;2067669;28;45999;-72
2022/05/26 01:09:39;;;;;;;12.43;9.00;;;;;;;12.70;93.24;101350.75;2066004;28;45155;-74
2022/05/26 01:10:41;;;;;;;11.27;8.63;;;;;;;12.69;93.23;101355.25;2063210;28;44506;-74
2022/05/26 01:11:44;;;;;;;10.07;8.63;;;;;;;12.68;93.40;101347.22;2061887;28;44306;-74
2022/05/26 01:12:46;;;;;;;13.30;9.70;;;;;;;12.68;93.84;101352.59;2070502;28;44690;-73
2022/05/26 01:14:09;;;;;;;11.73;8.60;;;;;;;12.68;93.62;101352.59;2070422;28;44445;-73
2022/05/26 01:15:18;;;;;;;12.70;8.60;;;;;;;12.67;93.69;101342.75;2070755;28;44270;-73
2022/05/26 01:17:07;;;;;;;12.43;9.25;;;;;;;12.67;93.91;101348.13;2066985;28;43339;-73
2022/05/26 01:18:40;;;;;;;10.98;9.57;;;;;;;12.66;94.01;101349.06;2063126;28;44092;-73
2022/05/26 01:20:19;;;;;;;14.40;9.65;;;;;;;12.65;94.02;101356.25;2070767;28;43466;-73
2022/05/26 01:21:39;;;;;;;16.02;9.75;;;;;;;12.66;94.37;101357.13;2063114;28;45042;-73
2022/05/26 01:23:17;;;;;;;14.77;10.10;;;;;;;12.65;93.82;101352.66;2070444;28;46577;-73
2022/05/26 01:24:58;;;;;;;16.30;10.02;;;;;;;12.64;94.71;101362.53;2064432;28;44262;-73
2022/05/26 01:26:23;;;;;;;;;;;;;;;12.65;94.39;101364.31;2063437;28;42953;-73
2022/05/26 01:27:34;;;;;;;13.30;9.63;;;;;;;12.64;94.11;101359.84;2062504;28;46304;-72
2022/05/26 01:29:27;;;;;;;12.63;10.20;;;;;;;12.63;94.49;101357.19;2063352;28;43889;-74
2022/05/26 01:30:55;;;;;;;14.68;10.40;;;;;;;12.64;94.72;101365.22;2063126;28;46174;-73
2022/05/26 01:32:43;;;;;;;14.30;10.98;;;;;;;12.62;94.90;101359.00;2063350;28;43674;-73
2022/05/26 01:34:14;;;;;;;13.15;10.48;;;;;;;12.62;95.20;101355.44;2063493;28;20105;-73
2022/05/26 01:35:39;;;;;;;16.73;10.25;;;;;;;12.59;94.63;101356.38;2058581;28;46236;-73
2022/05/26 01:37:01;;;;;;;16.13;9.98;;;;;;;12.58;94.89;101368.94;2065232;28;34959;-73
2022/05/26 01:38:29;;;;;;;15.15;10.38;;;;;;;12.57;94.72;101361.78;2070308;28;44052;-73
2022/05/26 01:40:08;;;;;;;12.13;10.00;;;;;;;12.57;95.35;101367.16;2066155;28;44886;-73
2022/05/26 01:41:28;;;;;;;13.50;9.57;;;;;;;12.55;95.29;101363.66;2062753;28;44521;-73
2022/05/26 01:43:15;;;;;;;14.38;11.02;;;;;;;12.56;95.13;101367.19;2069975;28;44492;-73
2022/05/26 01:44:48;;;;;;;12.27;10.93;;;;;;;12.57;95.40;101360.91;2063722;28;43425;-72
2022/05/26 01:46:20;;;;;;;14.55;10.82;;;;;;;12.57;95.23;101372.53;2062551;28;46462;-73
2022/05/26 01:47:43;;;;;;;12.73;10.75;;;;;;;12.56;95.82;101365.41;2063103;28;46778;-73
2022/05/26 01:49:08;;;;;;;14.60;10.65;;;;;;;12.56;95.42;101370.78;2062586;28;45267;-73
2022/05/26 01:50:39;;;;;;;14.82;10.30;;;;;;;12.56;95.52;101369.88;2070873;28;20105;-74
2022/05/26 01:52:07;;;;;;;22.38;10.85;;;;;;;12.57;95.65;101363.59;2064138;28;44353;-73
2022/05/26 01:53:34;;;;;;;13.98;10.63;;;;;;;12.55;95.65;101371.69;2070221;28;46164;-73
2022/05/26 01:55:09;;;;;;;13.40;10.50;;;;;;;12.55;95.58;101374.38;2063424;28;45902;-74
2022/05/26 01:56:34;;;;;;;13.75;10.35;;;;;;;12.53;95.86;101373.53;2070337;28;45307;-73
2022/05/26 01:57:58;;;;;;;13.35;10.07;;;;;;;12.54;95.76;101385.16;2063657;28;46450;-73
2022/05/26 01:59:09;;;;;;;15.35;10.52;;;;;;;12.53;96.50;101383.41;2070075;28;44714;-73
2022/05/26 02:00:17;;;;;;;;;;;;;;;12.52;96.20;101377.13;2066219;28;45409;-73
2022/05/26 02:01:27;;;;;;;14.60;10.25;;;;;;;12.53;95.97;101381.59;2062138;28;43432;-74
2022/05/26 02:02:36;;;;;;;13.63;10.02;;;;;;;12.53;95.88;101381.59;2063986;28;20039;-73
2022/05/26 02:03:41;;;;;;;13.98;9.88;;;;;;;12.53;95.65;101378.91;2070444;28;44181;-73
2022/05/26 02:04:56;;;;;;;10.57;9.15;;;;;;;12.54;96.07;101371.72;2068144;28;46120;-73
2022/05/26 02:06:22;;;;;;;11.50;9.48;;;;;;;12.55;96.04;101376.19;2070696;28;43190;-73
2022/05/26 02:07:56;;;;;;;14.45;9.45;;;;;;;12.55;96.22;101376.19;2065467;28;46879;-73
2022/05/26 02:09:19;;;;;;;11.23;10.02;;;;;;;12.55;95.95;101386.94;2062664;28;44285;-73
2022/05/26 02:10:29;;;;;;;11.82;10.05;;;;;;;12.55;96.40;101385.13;2070315;28;44449;-72
2022/05/26 02:11:33;;;;;;;12.18;9.98;;;;;;;12.57;95.75;101390.47;2067418;28;44331;-73
2022/05/26 02:12:42;;;;;;;11.93;9.60;;;;;;;12.56;95.76;101386.91;2062198;28;45281;-73
2022/05/26 02:13:53;;;;;;;13.52;10.00;;;;;;;12.55;96.15;101385.13;2062673;28;45174;-73
2022/05/26 02:15:04;;;;;;;;;;;;;;;12.55;96.20;101385.13;2070479;28;43551;-73
2022/05/26 02:16:30;;;;;;;12.98;9.55;;;;;;;12.55;96.41;101393.19;2069489;28;20048;-73
2022/05/26 02:17:38;;;;;;;15.27;9.82;;;;;;;12.54;95.71;101391.44;2070356;28;46335;-73
2022/05/26 02:19:52;;;;;;;11.98;9.73;;;;;;;12.55;96.13;101395.00;2068143;28;20110;-73
2022/05/26 02:21:02;;;;;;;12.43;9.27;;;;;;;12.53;95.77;101389.66;2059263;28;46462;-73
2022/05/26 02:22:14;;;;;;;13.70;9.55;;;;;;;12.53;95.79;101391.47;2070068;28;42132;-72
2022/05/26 02:23:40;;;;;;;12.90;9.88;;;;;;;12.52;95.95;101387.88;2068127;28;43897;-72
2022/05/26 02:25:05;;;;;;;11.18;9.20;;;;;;;12.52;96.27;101392.38;2061372;28;46055;-73
2022/05/26 02:26:07;;;;;;;11.60;9.48;;;;;;;12.53;96.32;101400.41;2062480;28;45712;-72
2022/05/26 02:27:09;;;;;;;10.43;8.90;;;;;;;12.53;96.57;101395.03;2069818;28;46170;-73
2022/05/26 02:28:11;;;;;;;11.40;8.95;;;;;;;12.54;96.02;101395.91;2070083;28;44896;-71
2022/05/26 02:30:39;;;;;;;12.93;8.60;;;;;;;12.53;96.16;101399.53;2070170;28;45136;-73
2022/05/26 02:31:44;;;;;;;10.68;8.73;;;;;;;12.52;96.28;101401.31;2067016;28;37101;-73
2022/05/26 02:32:50;;;;;;;10.95;8.73;;;;;;;12.51;96.12;101394.19;2063314;28;45624;-73
2022/05/26 02:33:56;;;;;;;11.10;8.00;;;;;;;12.50;96.05;101395.09;2071708;28;44612;-73
2022/05/26 02:35:02;;;;;;;10.63;8.55;;;;;;;12.51;96.36;101399.56;2071668;28;20168;-73
2022/05/26 02:36:03;;;;;;;12.80;8.60;;;;;;;12.50;96.32;101403.16;2071142;28;45068;-73
2022/05/26 02:37:08;;;;;;;9.00;8.10;;;;;;;12.49;95.84;101401.41;2070687;28;45548;-73
2022/05/26 02:38:16;;;;;;;12.73;8.25;;;;;;;12.49;96.17;101398.72;2071109;28;45510;-73
2022/05/26 02:39:18;;;;;;;11.95;7.68;;;;;;;12.49;96.60;101395.13;2070403;28;43361;-73
2022/05/26 02:40:22;;;;;;;10.57;7.13;;;;;;;12.47;96.49;101394.28;2063578;28;45587;-73
2022/05/26 02:41:24;;;;;;;11.70;7.53;;;;;;;12.45;96.39;101394.31;2071414;28;45231;-73
2022/05/26 02:42:28;;;;;;;11.02;8.02;;;;;;;12.45;95.99;101399.69;2070930;28;43530;-73
2022/05/26 02:43:32;;;;;;;9.75;7.63;;;;;;;12.46;96.15;101400.59;2063454;28;45793;-73
2022/05/26 02:44:36;;;;;;;9.55;7.25;;;;;;;12.44;96.32;101397.94;2071140;28;46160;-73
2022/05/26 02:46:03;;;;;;;12.82;7.93;;;;;;;12.43;96.30;101393.47;2070663;28;43904;-73
2022/05/26 02:47:50;;;;;;;10.35;6.95;;;;;;;12.41;96.38;101395.31;2071529;28;45256;-73
2022/05/26 02:49:34;;;;;;;9.18;7.25;;;;;;;12.37;96.51;101391.81;2063226;28;44520;-73
2022/05/26 02:50:49;;;;;;;10.55;7.03;;;;;;;12.36;96.64;101399.91;2063370;28;44038;-73
2022/05/26 02:51:58;;;;;;;9.32;6.93;;;;;;;12.34;96.42;101399.94;2063922;28;45510;-73
2022/05/26 02:53:15;;;;;;;10.95;7.68;;;;;;;12.33;96.83;101413.44;2070841;28;46572;-73
2022/05/26 02:55:08;;;;;;;9.60;7.50;;;;;;;12.31;96.70;101412.56;2069000;28;40690;-73
2022/05/26 02:56:34;;;;;;;9.07;7.70;;;;;;;12.32;97.06;101417.00;2055288;28;42481;-73
2022/05/26 02:58:00;;;;;;;13.40;8.43;;;;;;;12.31;96.79;101416.16;2038699;29;45558;-73
2022/05/26 02:59:30;;;;;;;10.25;7.88;;;;;;;12.31;97.43;101407.19;2061628;28;46024;-72
2022/05/26 03:01:06;;;;;;;11.10;8.13;;;;;;;12.27;97.04;101413.53;2064004;28;42497;-73
2022/05/26 03:02:19;;;;;;;13.32;8.77;;;;;;;12.25;96.87;101413.56;2063864;28;45629;-73
2022/05/26 03:03:34;;;;;;;11.13;8.00;;;;;;;12.24;97.46;101406.47;2071276;28;43717;-73
2022/05/26 03:04:54;;;;;;;13.05;8.45;;;;;;;12.23;97.16;101410.91;2068084;28;43819;-73
2022/05/26 03:06:07;;;;;;;13.48;8.32;;;;;;;12.24;97.74;101411.81;2063629;28;46063;-73
2022/05/26 03:07:18;;;;;;;16.00;8.80;;;;;;;12.19;97.45;101403.88;2071338;28;44384;-72
2022/05/26 03:08:25;;;;;;;15.32;9.48;;;;;;;12.19;97.70;101408.34;2068989;28;45186;-73
2022/05/26 03:09:27;;;;;;;12.48;8.98;;;;;;;12.17;98.08;101411.06;2071379;28;46069;-73
2022/05/26 03:10:32;;;;;;;13.15;8.52;;;;;;;12.17;98.26;101411.06;2070584;28;42790;-73
2022/05/26 03:11:57;;;;;;;14.63;9.25;;;;;;;12.16;97.71;101414.66;2069855;28;47831;-73
2022/05/26 03:13:01;;;;;;;15.75;9.63;;;;;;;12.16;97.85;101419.16;2069002;28;20043;-73
2022/05/26 03:14:02;;;;;;;13.52;8.90;;;;;;;12.15;98.27;101412.00;2063889;28;44097;-73
2022/05/26 03:15:08;;;;;;;14.32;9.18;;;;;;;12.14;97.79;101415.63;2063816;28;43549;-74
2022/05/26 03:16:09;;;;;;;19.42;10.38;;;;;;;12.11;98.12;101411.19;2071335;28;43810;-73
2022/05/26 03:17:11;;;;;;;16.02;9.80;;;;;;;12.11;98.46;101416.56;2071168;28;44065;-73
2022/05/26 03:18:15;;;;;;;15.82;9.68;;;;;;;12.09;98.67;101415.72;2063795;28;44349;-72
2022/05/26 03:19:17;;;;;;;17.52;9.90;;;;;;;12.10;98.48;101413.94;2063841;28;45293;-73
2022/05/26 03:20:19;;;;;;;16.58;10.45;;;;;;;12.08;98.35;101416.66;2063941;28;28741;-73
2022/05/26 03:21:21;;;;;;;17.88;10.27;;;;;;;12.07;98.71;101425.59;2064506;28;42815;-73
2022/05/26 03:22:26;;;;;;;15.20;10.02;;;;;;;12.08;98.37;101422.00;2063746;28;45491;-73
2022/05/26 03:23:28;;;;;;;15.90;10.52;;;;;;;12.08;98.87;101415.72;2063970;28;45618;-73
2022/05/26 03:24:30;;;;;;;16.33;10.85;;;;;;;12.09;99.09;101417.53;2063626;28;45256;-73
2022/05/26 03:25:31;;;;;;;17.38;10.15;;;;;;;12.08;99.14;101413.06;2063878;28;46759;-73
2022/05/26 03:26:33;;;;;;;19.65;11.27;;;;;;;12.08;99.15;101419.31;2063610;28;45692;-73
2022/05/26 03:27:35;;;;;;;15.25;10.68;;;;;;;12.07;98.77;101425.59;2071020;28;45257;-73
2022/05/26 03:28:37;;;;;;;17.83;11.02;;;;;;;12.08;98.87;101424.69;2071323;28;40758;-73
2022/05/26 03:29:39;;;;;;;18.23;10.95;;;;;;;12.09;99.58;101423.75;2063591;28;42799;-73
2022/05/26 03:30:42;;;;;;;19.10;11.38;;;;;;;12.11;99.03;101421.94;2064693;28;20848;-73
2022/05/26 03:31:44;;;;;;;16.85;10.88;;;;;;;12.12;99.23;101429.06;2063791;28;44769;-73
2022/05/26 03:32:46;;;;;;;17.20;11.48;;;;;;;12.15;99.11;101429.00;2063739;28;46219;-73
2022/05/26 03:40:57;;;;;;;21.17;11.25;;;;;;;12.20;98.64;101436.94;2054022;28;44637;-73
2022/05/26 03:42:00;;;;;;;23.05;11.93;;;;;;;12.21;98.78;101439.59;2055791;28;45521;-73
2022/05/26 03:43:06;;;;;;;22.42;12.07;;;;;;;12.23;98.05;101434.22;2063605;28;44958;-73
2022/05/26 03:44:08;;;;;;;19.13;11.60;;;;;;;12.24;98.01;101441.34;2062960;28;42336;-73
2022/05/26 03:45:13;;;;;;;18.45;11.73;;;;;;;12.27;98.67;101440.41;2063767;28;45344;-73
2022/05/26 03:46:15;;;;;;;22.73;12.43;;;;;;;12.28;97.99;101437.69;2063342;28;43864;-73
2022/05/26 03:47:17;;;;;;;24.98;11.48;;;;;;;12.30;97.83;101437.66;2071298;28;45664;-73
2022/05/26 03:48:18;;;;;;;19.73;10.57;;;;;;;12.33;97.59;101443.84;2070797;28;46483;-72
2022/05/26 03:49:21;;;;;;;18.38;10.45;;;;;;;12.35;97.58;101439.31;2064081;28;20046;-73
2022/05/26 03:50:23;;;;;;;20.00;11.02;;;;;;;12.41;97.35;101446.34;2063405;28;45474;-72
2022/05/26 03:51:27;;;;;;;18.58;9.90;;;;;;;12.48;97.85;101437.22;2063097;28;46555;-73
2022/05/26 03:52:29;;;;;;;15.65;10.73;;;;;;;12.57;96.56;101436.13;2063660;28;44607;-73
2022/05/26 03:53:30;;;;;;;21.73;11.52;;;;;;;12.72;96.82;101445.63;2063275;28;44331;-71
2022/05/26 03:54:34;;;;;;;16.45;10.18;;;;;;;12.84;95.69;101439.97;2064091;28;39980;-72
2022/05/26 03:55:36;;;;;;;20.40;10.60;;;;;;;12.91;94.95;101435.34;2063466;28;42921;-73
2022/05/26 03:56:38;;;;;;;19.60;10.20;;;;;;;13.03;94.70;101439.50;2063784;28;44836;-72
2022/05/26 03:57:42;;;;;;;17.80;9.35;;;;;;;13.10;93.91;101438.41;2063266;28;44301;-72
2022/05/26 03:58:45;;;;;;;20.25;10.30;;;;;;;13.14;93.87;101440.13;2072056;28;20042;-72
2022/05/26 03:59:46;;;;;;;18.23;8.50;;;;;;;13.21;93.46;101443.53;2070640;28;44963;-73
2022/05/26 04:00:49;;;;;;;19.30;9.68;;;;;;;13.22;93.05;101451.56;2063521;28;44503;-71
2022/05/26 04:01:51;;;;;;;15.88;8.52;;;;;;;13.27;92.56;101449.63;2063115;28;46658;-73
2022/05/26 04:02:53;;;;;;;13.10;8.30;;;;;;;13.37;92.33;101453.03;2063644;28;43307;-73
2022/05/26 04:03:57;;;;;;;13.55;9.02;;;;;;;13.48;91.87;101453.59;2063228;28;45571;-73
2022/05/26 04:04:59;;;;;;;15.25;8.80;;;;;;;13.48;91.22;101447.34;2063673;28;36513;-73
2022/05/26 04:06:01;;;;;;;24.50;8.98;;;;;;;13.49;91.52;101444.59;2062979;28;45129;-72
2022/05/26 04:07:03;;;;;;;14.95;8.20;;;;;;;13.45;91.35;101445.59;2063451;28;47333;-73
2022/05/26 04:08:08;;;;;;;18.25;8.65;;;;;;;13.44;91.50;101448.34;2063638;28;43360;-73
2022/05/26 04:09:10;;;;;;;16.75;9.13;;;;;;;13.36;91.74;101446.72;2063378;28;45628;-73
2022/05/26 04:10:13;;;;;;;17.17;9.25;;;;;;;13.26;91.98;101447.88;2063401;28;46147;-73
2022/05/26 04:11:15;;;;;;;19.38;9.20;;;;;;;13.24;91.78;101449.72;2063110;28;44424;-73
2022/05/26 04:12:18;;;;;;;19.13;9.27;;;;;;;13.19;92.59;101443.59;2062136;28;45883;-73
2022/05/26 04:13:22;;;;;;;18.55;8.73;;;;;;;13.26;92.15;101450.56;2063503;28;40005;-73
2022/05/26 04:14:27;;;;;;;15.82;8.95;;;;;;;13.28;92.19;101447.81;2063001;28;44568;-73
2022/05/26 04:15:30;;;;;;;19.45;9.50;;;;;;;13.35;92.08;101453.06;2063461;28;45149;-72
2022/05/26 04:16:31;;;;;;;20.13;9.30;;;;;;;13.45;91.51;101458.19;2063799;28;35098;-72
2022/05/26 04:17:33;;;;;;;20.88;9.80;;;;;;;13.43;91.98;101455.53;2063509;28;44469;-73
2022/05/26 04:18:37;;;;;;;18.55;9.65;;;;;;;13.51;91.52;101452.63;2062977;28;44786;-72
2022/05/26 04:19:41;;;;;;;15.63;8.57;;;;;;;13.65;90.94;101457.66;2063220;28;45256;-73
2022/05/26 04:20:42;;;;;;;18.92;9.27;;;;;;;13.91;89.74;101447.03;2063362;28;46583;-73
2022/05/26 04:23:04;;;;;;;15.02;7.72;;;;;;;14.59;88.06;101450.44;2068628;28;43310;-73
2022/05/26 04:24:06;;;;;;;17.88;8.80;;;;;;;14.60;86.38;101449.47;2070951;28;43505;-73
2022/05/26 04:25:09;;;;;;;14.05;7.53;;;;;;;14.69;85.54;101459.97;2071080;28;43083;-73
2022/05/26 04:26:11;;;;;;;20.58;8.32;;;;;;;14.80;85.32;101461.44;2063048;28;46079;-73
2022/05/26 04:27:16;;;;;;;18.02;7.85;;;;;;;14.67;85.57;101451.06;2063399;28;43262;-73
2022/05/26 04:28:18;;;;;;;18.27;8.52;;;;;;;14.74;85.49;101467.03;2070577;28;45889;-73
2022/05/26 04:29:23;;;;;;;20.65;8.35;;;;;;;14.92;85.34;101462.88;2070125;28;45593;-73
2022/05/26 04:30:25;;;;;;;14.88;7.60;;;;;;;15.08;84.39;101456.03;2063644;28;44040;-73
2022/05/26 04:31:27;;;;;;;14.27;8.05;;;;;;;15.13;83.76;101454.06;2063583;28;45803;-73
2022/05/26 04:32:30;;;;;;;17.55;8.07;;;;;;;15.14;83.76;101460.34;2063353;28;39937;-73
2022/05/26 04:33:33;;;;;;;16.67;7.75;;;;;;;15.14;83.59;101457.63;2063320;28;44487;-73
2022/05/26 04:34:36;;;;;;;13.57;7.28;;;;;;;15.32;83.79;101461.53;2062802;28;47855;-73
2022/05/26 04:35:37;;;;;;;18.88;7.55;;;;;;;15.18;83.42;101457.50;2063620;28;43606;-73
2022/05/26 04:36:39;;;;;;;14.32;7.05;;;;;;;15.21;83.22;101459.19;2059018;28;45167;-72
2022/05/26 04:37:43;;;;;;;15.25;7.45;;;;;;;15.15;83.21;101457.59;2060888;28;45997;-73
2022/05/26 04:38:45;;;;;;;15.60;7.57;;;;;;;15.06;83.83;101464.19;2062436;28;44450;-72
2022/05/26 04:39:53;;;;;;;14.85;7.93;;;;;;;15.04;84.03;101457.09;2063009;28;44589;-74
2022/05/26 04:41:04;;;;;;;13.55;7.80;;;;;;;15.08;84.32;101466.81;2063391;28;34422;-73
2022/05/26 04:42:07;;;;;;;16.42;8.13;;;;;;;15.08;84.08;101461.44;2062909;28;47032;-73
2022/05/26 04:43:12;;;;;;;15.45;7.40;;;;;;;15.16;84.07;101464.72;2063281;28;46007;-73
2022/05/26 04:44:19;;;;;;;17.25;8.32;;;;;;;15.21;82.85;101468.16;2063577;28;45340;-72
2022/05/26 04:45:21;;;;;;;19.38;8.02;;;;;;;15.22;82.77;101469.06;2062769;28;47432;-73
2022/05/26 04:46:23;;;;;;;17.08;8.13;;;;;;;15.32;82.98;101470.50;2063734;28;44194;-73
2022/05/26 04:47:26;;;;;;;18.52;7.80;;;;;;;15.49;82.42;101475.31;2062707;28;45723;-73
2022/05/26 04:48:27;;;;;;;16.70;7.72;;;;;;;15.30;82.78;101469.66;2071244;28;46112;-73
2022/05/26 04:49:31;;;;;;;15.60;7.90;;;;;;;15.26;82.65;101468.88;2070317;28;45088;-74
2022/05/26 04:50:32;;;;;;;19.13;7.95;;;;;;;15.27;82.81;101476.06;2063362;28;44676;-73
2022/05/26 04:51:38;;;;;;;15.80;7.43;;;;;;;15.18;82.65;101471.00;2063054;28;44639;-73
2022/05/26 04:52:41;;;;;;;18.67;7.68;;;;;;;15.00;83.93;101482.38;2063475;28;46004;-74
2022/05/26 04:53:43;;;;;;;19.27;7.43;;;;;;;14.85;84.48;101487.31;2062830;28;46246;-74
2022/05/26 04:54:45;;;;;;;18.35;7.45;;;;;;;14.90;84.55;101492.59;2063557;28;34196;-73
2022/05/26 04:55:54;;;;;;;17.45;7.50;;;;;;;14.84;84.71;101495.44;2063043;28;43521;-73
2022/05/26 04:56:58;;;;;;;18.98;8.18;;;;;;;14.78;85.01;101491.13;2063308;28;43513;-73
2022/05/26 04:57:59;;;;;;;17.65;7.82;;;;;;;14.87;84.94;101498.06;2062795;28;44334;-73
2022/05/26 04:59:01;;;;;;;19.15;7.45;;;;;;;15.01;84.35;101495.81;2063133;28;44837;-73
2022/05/26 05:00:10;;;;;;;18.45;7.75;;;;;;;15.11;84.41;101496.41;2063409;28;33798;-73
2022/05/26 05:01:14;;;;;;;21.73;7.82;;;;;;;15.09;83.50;101500.94;2063720;28;45480;-73
2022/05/26 05:02:19;;;;;;;18.33;7.15;;;;;;;15.17;84.11;101500.69;2070131;28;44912;-73
2022/05/26 05:03:23;;;;;;;18.08;7.75;;;;;;;15.22;83.57;101499.63;2069835;28;44153;-73
2022/05/26 05:04:26;;;;;;;15.50;7.60;;;;;;;15.35;82.17;101493.81;2061646;28;46524;-73
2022/05/26 05:05:28;;;;;;;18.17;7.03;;;;;;;15.55;81.90;101507.47;2070627;28;44593;-74
2022/05/26 05:06:30;;;;;;;15.65;6.70;;;;;;;15.51;81.10;101503.13;2070287;28;43942;-73
2022/05/26 05:07:32;;;;;;;19.35;6.97;;;;;;;15.65;81.49;101508.94;2063134;28;45408;-73
2022/05/26 05:08:33;;;;;;;15.68;6.40;;;;;;;15.63;80.76;101502.72;2062771;28;43862;-73
2022/05/26 05:09:38;;;;;;;18.83;6.60;;;;;;;15.64;80.76;101499.06;2062968;28;46095;-74
2022/05/26 05:10:39;;;;;;;17.60;7.15;;;;;;;15.81;80.69;101508.44;2062871;28;42127;-73
2022/05/26 05:11:41;;;;;;;14.77;6.15;;;;;;;15.73;80.12;101499.69;2062077;28;41067;-73
2022/05/26 05:12:48;;;;;;;15.65;6.05;;;;;;;15.83;80.85;101503.88;2062701;28;46732;-74
2022/05/26 05:13:52;;;;;;;17.77;6.65;;;;;;;15.79;79.70;101507.59;2063428;28;36616;-73
2022/05/26 05:14:56;;;;;;;17.23;6.10;;;;;;;15.79;79.53;101497.69;2062774;28;46781;-74
2022/05/26 05:16:30;;;;;;;19.20;6.15;;;;;;;15.86;79.78;101508.25;2071171;28;42131;-73
2022/05/26 05:17:32;;;;;;;16.38;6.05;;;;;;;16.09;79.18;101507.44;2066026;28;45610;-73
2022/05/26 05:18:34;;;;;;;18.05;5.78;;;;;;;16.17;78.86;101506.22;2062635;28;45180;-71
2022/05/26 05:19:35;;;;;;;17.10;5.03;;;;;;;16.37;76.63;101494.63;2070474;28;43466;-72
2022/05/26 05:20:38;;;;;;;15.93;5.57;;;;;;;16.46;76.84;101506.94;2070329;28;45343;-74
2022/05/26 05:21:49;;;;;;;17.02;4.90;;;;;;;17.06;75.55;101507.28;2062382;28;44435;-73
2022/05/26 05:23:04;;;;;;;15.98;4.75;;;;;;;17.43;72.37;101505.75;2070184;28;43862;-73
2022/05/26 05:24:20;;;;;;;11.25;4.50;;;;;;;18.00;70.30;101502.41;2067691;28;45187;-74
2022/05/26 05:25:33;;;;;;;12.02;4.45;;;;;;;18.85;68.47;101507.50;2070787;28;43106;-73
2022/05/26 05:26:40;;;;;;;12.35;4.38;;;;;;;18.99;66.77;101496.88;2067302;28;44063;-74
2022/05/26 05:27:50;;;;;;;13.48;3.95;;;;;;;18.92;65.97;101500.84;2062930;28;35488;-73
2022/05/26 05:28:58;;;;;;;;;;;;;;;19.25;65.61;101508.25;2063338;28;44349;-73
2022/05/26 05:30:04;;;;;;;15.43;4.00;;;;;;;19.54;65.57;101501.34;2062884;28;47112;-74
2022/05/26 05:31:20;;;;;;;15.48;4.15;;;;;;;19.64;63.64;101499.91;2070164;28;44971;-73